Time;durP1;ratioP1;P1;durP2;ratioP2;P2;SDS_P1;SDS_P2;PMS_P1;PMS_P2;Temp;Humidity;BMP_temperature;BMP_pressure;BME280_temperature;BME280_humidity;BME280_pressure;Samples;Min_cycle;Max_cycle;Signal;HPM_P1;HPM_P2
2022/06/25 00:02:20;;;;;;;4.80;4.18;;;17.40;99.90;;;;;;5018493;28;20018;-85
2022/06/25 00:07:30;;;;;;;4.85;4.22;;;17.30;99.90;;;;;;5036202;28;20092;-86
2022/06/25 00:09:56;;;;;;;5.50;3.92;;;17.30;99.90;;;;;;5018133;28;20056;-87
2022/06/25 00:12:33;;;;;;;4.40;3.53;;;17.30;99.90;;;;;;5018216;28;20482;-86
2022/06/25 00:15:08;;;;;;;5.00;3.55;;;17.30;99.90;;;;;;5018081;28;20040;-85
2022/06/25 00:17:34;;;;;;;6.47;3.88;;;17.30;99.90;;;;;;5034507;28;20113;-86
2022/06/25 00:19:59;;;;;;;4.43;3.58;;;17.30;99.90;;;;;;5018206;28;20072;-85
2022/06/25 00:22:25;;;;;;;5.60;3.97;;;17.30;99.90;;;;;;5018097;28;20569;-85
2022/06/25 00:24:50;;;;;;;6.13;3.35;;;17.30;99.90;;;;;;5018063;28;20397;-86
2022/06/25 00:27:16;;;;;;;8.05;4.20;;;17.30;99.90;;;;;;5017931;28;20497;-86
2022/06/25 00:29:42;;;;;;;6.97;4.90;;;17.30;99.90;;;;;;5017774;28;20025;-86
2022/06/25 00:32:09;;;;;;;5.07;3.28;;;17.30;99.90;;;;;;5017727;28;20025;-86
2022/06/25 00:34:35;;;;;;;5.30;3.85;;;17.20;99.90;;;;;;5017796;28;20163;-86
2022/06/25 00:37:01;;;;;;;6.40;3.30;;;17.10;99.90;;;;;;5017682;28;20123;-86
2022/06/25 00:39:26;;;;;;;4.38;3.28;;;17.20;99.90;;;;;;5017674;28;20485;-86
2022/06/25 00:41:52;;;;;;;4.80;3.40;;;17.20;99.90;;;;;;5017449;28;20029;-86
2022/06/25 00:44:17;;;;;;;3.88;3.10;;;17.20;99.90;;;;;;5017565;28;20467;-86
2022/06/25 00:46:47;;;;;;;5.20;3.30;;;17.20;99.90;;;;;;5017456;28;20025;-84
2022/06/25 00:49:13;;;;;;;4.90;3.67;;;17.10;99.90;;;;;;5017705;28;20513;-85
2022/06/25 00:51:40;;;;;;;4.35;3.13;;;17.10;99.90;;;;;;5034931;28;20491;-86
2022/06/25 00:54:10;;;;;;;5.65;3.03;;;17.10;99.90;;;;;;5017155;28;20490;-86
2022/06/25 00:56:39;;;;;;;3.15;2.65;;;17.10;99.90;;;;;;5016782;28;20504;-85
2022/06/25 00:59:05;;;;;;;7.00;3.03;;;17.10;99.90;;;;;;5034865;28;20026;-86
2022/06/25 01:01:35;;;;;;;4.13;3.30;;;17.00;99.90;;;;;;5016968;28;20017;-85
2022/06/25 01:04:01;;;;;;;5.35;3.35;;;17.00;99.90;;;;;;5034797;28;20028;-85
2022/06/25 01:06:28;;;;;;;5.40;3.35;;;17.00;99.90;;;;;;5034571;28;20030;-85
2022/06/25 01:08:57;;;;;;;3.95;3.13;;;17.00;99.90;;;;;;5017225;28;20381;-84
2022/06/25 01:11:26;;;;;;;5.70;3.50;;;17.00;99.90;;;;;;5034675;28;20036;-85
2022/06/25 01:13:53;;;;;;;3.95;3.33;;;17.00;99.90;;;;;;5013340;28;20385;-85
2022/06/25 01:16:20;;;;;;;5.38;3.10;;;17.00;99.90;;;;;;5034168;28;20512;-85
2022/06/25 01:18:47;;;;;;;6.50;3.20;;;17.00;99.90;;;;;;5033401;28;20025;-85
2022/06/25 01:21:13;;;;;;;4.80;3.03;;;16.90;99.90;;;;;;5033385;28;20090;-85
2022/06/25 01:23:39;;;;;;;6.80;3.08;;;16.90;99.90;;;;;;5034343;28;20421;-85
2022/06/25 01:26:05;;;;;;;7.28;3.60;;;16.90;99.90;;;;;;5016522;28;20017;-86
2022/06/25 01:28:31;;;;;;;5.50;3.63;;;16.90;99.90;;;;;;5034042;28;20099;-85
2022/06/25 01:30:56;;;;;;;6.32;3.70;;;16.90;99.90;;;;;;5016626;28;20029;-86
2022/06/25 01:33:22;;;;;;;5.75;3.20;;;16.80;99.90;;;;;;5034401;28;20039;-85
2022/06/25 01:35:47;;;;;;;4.55;3.25;;;16.80;99.90;;;;;;5012983;28;20056;-85
2022/06/25 01:38:13;;;;;;;4.80;3.20;;;16.80;99.90;;;;;;5014574;28;20382;-85
2022/06/25 01:40:39;;;;;;;4.97;3.15;;;16.80;99.90;;;;;;5013105;28;20080;-85
2022/06/25 01:43:05;;;;;;;7.57;4.07;;;16.80;99.90;;;;;;5013463;28;20026;-85
2022/06/25 01:45:36;;;;;;;5.57;3.10;;;16.70;99.90;;;;;;5013201;28;20044;-85
2022/06/25 01:48:07;;;;;;;7.20;3.42;;;16.70;99.90;;;;;;5013016;28;20026;-86
2022/06/25 01:50:33;;;;;;;5.47;3.50;;;16.70;99.90;;;;;;5013211;28;20490;-85
2022/06/25 01:52:59;;;;;;;7.35;3.60;;;16.60;99.90;;;;;;5012967;28;20022;-85
2022/06/25 01:55:25;;;;;;;6.70;3.65;;;16.60;99.90;;;;;;5013118;28;20045;-85
2022/06/25 01:57:51;;;;;;;5.65;3.90;;;16.60;99.90;;;;;;5013201;28;20052;-85
2022/06/25 02:00:25;;;;;;;4.13;3.63;;;16.60;99.90;;;;;;5012872;28;20034;-85
2022/06/25 02:02:52;;;;;;;4.68;3.45;;;16.60;99.90;;;;;;5012959;28;20026;-85
2022/06/25 02:05:56;;;;;;;5.43;3.35;;;16.50;99.90;;;;;;5012728;28;20030;-85
2022/06/25 02:08:08;;;;;;;6.47;3.45;;;16.60;99.90;;;;;;5013279;28;20029;-86
2022/06/25 02:10:34;;;;;;;3.42;3.10;;;16.50;99.90;;;;;;5013942;28;20058;-85
2022/06/25 02:13:00;;;;;;;4.53;3.15;;;16.50;99.90;;;;;;5012977;28;20555;-85
2022/06/25 02:15:25;;;;;;;4.50;3.25;;;16.50;99.90;;;;;;5012722;28;20034;-86
2022/06/25 02:17:51;;;;;;;3.45;2.72;;;16.40;99.90;;;;;;5012933;28;20386;-85
2022/06/25 02:20:17;;;;;;;6.00;3.20;;;16.40;99.90;;;;;;5012784;28;20034;-84
2022/06/25 02:22:43;;;;;;;4.47;3.00;;;16.40;99.90;;;;;;5012910;28;20044;-85
2022/06/25 02:25:08;;;;;;;4.35;2.65;;;16.40;99.90;;;;;;5012576;28;20038;-86
2022/06/25 02:27:35;;;;;;;7.05;3.75;;;16.40;99.90;;;;;;5012822;28;20033;-85
2022/06/25 02:30:01;;;;;;;7.28;3.65;;;16.40;99.90;;;;;;5012938;28;20021;-85
2022/06/25 02:32:29;;;;;;;5.22;3.25;;;16.40;99.90;;;;;;5014187;28;20076;-85
2022/06/25 02:34:54;;;;;;;4.78;3.38;;;16.40;99.90;;;;;;5012485;28;20501;-85
2022/06/25 02:37:20;;;;;;;8.65;3.33;;;16.30;99.90;;;;;;5012486;28;20042;-85
2022/06/25 02:39:45;;;;;;;5.07;2.90;;;16.30;99.90;;;;;;5012756;28;20065;-85
2022/06/25 02:42:11;;;;;;;5.47;3.33;;;16.30;99.90;;;;;;5012698;28;20105;-85
2022/06/25 02:44:36;;;;;;;4.57;3.00;;;16.20;99.90;;;;;;5012649;28;20021;-85
2022/06/25 02:47:03;;;;;;;3.95;2.95;;;16.20;99.90;;;;;;5012400;28;20069;-85
2022/06/25 02:49:29;;;;;;;3.85;3.45;;;16.20;99.90;;;;;;5012704;28;20018;-85
2022/06/25 02:51:54;;;;;;;4.57;3.42;;;16.20;99.90;;;;;;5012617;28;20541;-85
2022/06/25 02:54:20;;;;;;;5.05;3.05;;;16.20;99.90;;;;;;5012297;28;20398;-84
2022/06/25 02:59:30;;;;;;;6.03;2.85;;;16.20;99.90;;;;;;5013815;28;20084;-86
2022/06/25 03:01:55;;;;;;;6.70;3.75;;;16.10;99.90;;;;;;5012359;28;20426;-85
2022/06/25 03:04:24;;;;;;;9.15;3.50;;;16.10;99.90;;;;;;5012553;28;20371;-85
2022/06/25 03:06:50;;;;;;;4.60;2.95;;;16.10;99.90;;;;;;5012221;28;20463;-86
2022/06/25 03:09:16;;;;;;;4.10;2.72;;;16.10;99.90;;;;;;5012314;28;20048;-85
2022/06/25 03:11:42;;;;;;;5.15;2.85;;;16.10;99.90;;;;;;5012344;28;20026;-85
2022/06/25 03:14:08;;;;;;;4.88;2.85;;;16.10;99.90;;;;;;5012235;28;20485;-85
2022/06/25 03:16:33;;;;;;;3.97;2.38;;;16.10;99.90;;;;;;5012265;28;20065;-85
2022/06/25 03:18:59;;;;;;;3.72;2.75;;;16.20;99.90;;;;;;5012683;28;20025;-85
2022/06/25 03:21:24;;;;;;;3.70;2.55;;;16.20;99.90;;;;;;5015735;28;20122;-85
2022/06/25 03:23:50;;;;;;;4.80;2.55;;;16.20;99.90;;;;;;5029861;28;20364;-84
2022/06/25 03:26:15;;;;;;;4.50;2.13;;;16.20;99.90;;;;;;5032378;28;20367;-85
2022/06/25 03:28:41;;;;;;;5.85;2.88;;;16.20;99.90;;;;;;5032177;28;20486;-85
2022/06/25 03:31:06;;;;;;;5.15;2.25;;;16.20;99.90;;;;;;5032147;28;20123;-84
2022/06/25 03:33:32;;;;;;;5.10;3.03;;;16.20;99.90;;;;;;5032016;28;20545;-84
2022/06/25 03:35:57;;;;;;;5.55;2.83;;;16.10;99.90;;;;;;5031642;28;20050;-85
2022/06/25 03:38:23;;;;;;;5.13;2.63;;;16.10;99.90;;;;;;5031836;28;20025;-85
2022/06/25 03:40:48;;;;;;;6.15;3.10;;;16.10;99.90;;;;;;5031976;28;20509;-85
2022/06/25 03:43:14;;;;;;;6.13;2.70;;;16.10;99.90;;;;;;5031839;28;20502;-84
2022/06/25 03:45:39;;;;;;;4.35;2.42;;;16.10;99.90;;;;;;5031832;28;20495;-85
2022/06/25 03:48:05;;;;;;;7.45;2.70;;;16.10;99.90;;;;;;5015305;28;20029;-85
2022/06/25 03:50:33;;;;;;;4.07;2.58;;;16.10;99.90;;;;;;5031718;28;20036;-84
2022/06/25 03:52:58;;;;;;;4.00;2.42;;;16.10;99.90;;;;;;5031444;28;20470;-85
2022/06/25 03:55:24;;;;;;;6.13;2.60;;;16.10;99.90;;;;;;5031809;28;20053;-85
2022/06/25 03:57:49;;;;;;;5.57;2.20;;;16.10;99.90;;;;;;5031566;28;20026;-85
2022/06/25 04:00:15;;;;;;;4.72;2.53;;;16.10;99.90;;;;;;5031715;28;20034;-84
2022/06/25 04:02:41;;;;;;;4.22;2.22;;;16.10;99.90;;;;;;5031849;28;20026;-85
2022/06/25 04:05:07;;;;;;;4.10;2.47;;;16.10;99.90;;;;;;5031434;28;20034;-85
2022/06/25 04:07:32;;;;;;;5.47;2.22;;;16.20;99.90;;;;;;5031404;28;20030;-85
2022/06/25 04:09:58;;;;;;;3.05;2.50;;;16.20;99.90;;;;;;5031536;28;20025;-85
2022/06/25 04:12:23;;;;;;;5.88;2.63;;;16.20;99.90;;;;;;5031321;28;20040;-85
2022/06/25 04:14:49;;;;;;;4.03;2.97;;;16.20;99.90;;;;;;5031411;28;20124;-85
2022/06/25 04:17:14;;;;;;;6.70;3.35;;;16.20;99.90;;;;;;5031252;28;20028;-85
2022/06/25 04:19:40;;;;;;;3.90;2.88;;;16.30;99.90;;;;;;5031198;28;20126;-85
2022/06/25 04:22:10;;;;;;;6.32;3.50;;;16.30;99.90;;;;;;5030885;28;20522;-85
2022/06/25 04:24:37;;;;;;;6.10;2.63;;;16.30;99.90;;;;;;5031093;28;20029;-85
2022/06/25 04:27:03;;;;;;;5.38;2.97;;;16.40;99.90;;;;;;5031110;28;20021;-85
2022/06/25 04:29:29;;;;;;;6.85;3.22;;;16.40;99.90;;;;;;5030913;28;20057;-85
2022/06/25 04:31:55;;;;;;;5.85;3.33;;;16.50;99.90;;;;;;5015032;28;20106;-85
2022/06/25 04:34:20;;;;;;;4.68;2.92;;;16.60;99.90;;;;;;5030888;28;20120;-85
2022/06/25 04:36:46;;;;;;;5.95;2.90;;;16.70;99.90;;;;;;5030734;28;20054;-85
2022/06/25 04:39:11;;;;;;;6.55;2.97;;;16.80;99.90;;;;;;5031111;28;20054;-86
2022/06/25 04:41:37;;;;;;;4.80;2.47;;;17.00;99.90;;;;;;5014295;28;20030;-86
2022/06/25 04:44:03;;;;;;;9.73;3.15;;;17.10;99.90;;;;;;5015248;28;20080;-85
2022/06/25 04:46:31;;;;;;;5.53;2.70;;;17.20;99.90;;;;;;5031039;28;20025;-85
2022/06/25 04:48:58;;;;;;;7.70;2.90;;;17.30;99.90;;;;;;5030821;28;20030;-85
2022/06/25 04:51:24;;;;;;;4.47;3.10;;;17.40;99.90;;;;;;5015295;28;20462;-86
2022/06/25 04:53:57;;;;;;;4.68;2.30;;;17.50;99.90;;;;;;5030502;28;20378;-85
2022/06/25 04:56:24;;;;;;;4.78;1.95;;;17.70;99.90;;;;;;5014032;28;20034;-86
2022/06/25 04:58:50;;;;;;;5.82;2.03;;;17.90;99.90;;;;;;5030691;28;20027;-85
2022/06/25 05:01:15;;;;;;;3.05;2.03;;;18.30;99.90;;;;;;5015291;28;20053;-85
2022/06/25 05:03:41;;;;;;;2.70;2.15;;;18.40;99.90;;;;;;5015137;28;20100;-86
2022/06/25 05:06:08;;;;;;;3.00;2.42;;;18.40;99.90;;;;;;5014935;28;20481;-87
2022/06/25 05:08:34;;;;;;;5.03;2.63;;;18.40;99.90;;;;;;5030452;28;20466;-86
2022/06/25 05:10:59;;;;;;;4.47;2.40;;;18.30;99.90;;;;;;5015201;28;20108;-86
2022/06/25 05:13:25;;;;;;;3.42;1.65;;;18.60;99.90;;;;;;5030286;28;20026;-86
2022/06/25 05:15:52;;;;;;;1.98;1.52;;;19.00;99.90;;;;;;5014814;28;20060;-86
2022/06/25 05:18:18;;;;;;;2.38;1.48;;;19.40;99.90;;;;;;5014764;28;20026;-87
2022/06/25 05:20:44;;;;;;;4.15;1.40;;;19.90;99.90;;;;;;5014711;28;20097;-86
2022/06/25 05:23:11;;;;;;;5.47;1.77;;;20.40;99.90;;;;;;5014961;28;20430;-86
2022/06/25 05:25:37;;;;;;;4.57;1.42;;;20.60;99.90;;;;;;5030065;28;20038;-87
2022/06/25 05:28:03;;;;;;;5.40;1.92;;;20.90;99.90;;;;;;5013400;28;20101;-86
2022/06/25 05:30:29;;;;;;;3.40;1.35;;;21.00;99.90;;;;;;5014862;28;20453;-86
2022/06/25 05:32:54;;;;;;;4.93;2.03;;;21.20;99.90;;;;;;5014687;28;20024;-87
2022/06/25 05:35:20;;;;;;;4.82;1.23;;;21.30;99.90;;;;;;5016787;28;20038;-86
2022/06/25 05:37:45;;;;;;;2.35;1.30;;;21.30;99.90;;;;;;5016717;28;20079;-87
2022/06/25 05:40:11;;;;;;;2.35;1.73;;;21.10;99.90;;;;;;5016589;28;20025;-86
2022/06/25 05:42:37;;;;;;;4.25;1.98;;;20.90;99.90;;;;;;5016263;28;20021;-86
2022/06/25 05:45:03;;;;;;;6.57;1.73;;;20.80;99.90;;;;;;5033082;28;20394;-86
2022/06/25 05:47:29;;;;;;;4.80;1.50;;;20.70;99.90;;;;;;5016659;28;20025;-86
2022/06/25 05:49:54;;;;;;;2.65;1.55;;;20.70;99.90;;;;;;5016325;28;20392;-86
2022/06/25 05:52:20;;;;;;;3.25;1.40;;;20.80;99.90;;;;;;5016485;28;20495;-86
2022/06/25 05:54:45;;;;;;;3.75;1.42;;;20.80;99.90;;;;;;5016444;28;20037;-86
2022/06/25 05:57:11;;;;;;;3.03;2.08;;;20.80;99.90;;;;;;5016225;28;20028;-86
2022/06/25 05:59:37;;;;;;;3.55;1.77;;;20.80;99.90;;;;;;5016519;28;20466;-86
2022/06/25 06:02:02;;;;;;;2.38;1.65;;;20.90;99.90;;;;;;5034051;28;20398;-86
2022/06/25 06:04:28;;;;;;;6.72;1.58;;;20.90;99.90;;;;;;5016105;28;20022;-86
2022/06/25 06:06:53;;;;;;;3.80;1.67;;;20.90;99.90;;;;;;5015822;28;20030;-86
2022/06/25 06:09:19;;;;;;;4.03;1.45;;;21.00;99.90;;;;;;5015958;28;20033;-86
2022/06/25 06:11:44;;;;;;;2.78;1.65;;;21.10;99.90;;;;;;5016332;28;20029;-86
2022/06/25 06:14:10;;;;;;;3.08;1.33;;;21.20;99.90;;;;;;5033566;28;20033;-88
2022/06/25 06:16:35;;;;;;;4.53;1.75;;;21.30;99.90;;;;;;5016232;28;20033;-85
2022/06/25 06:19:01;;;;;;;3.83;1.17;;;21.40;99.90;;;;;;5032837;28;20393;-84
2022/06/25 06:21:27;;;;;;;4.25;1.30;;;21.50;99.90;;;;;;5032426;28;20072;-86
2022/06/25 06:23:53;;;;;;;2.90;1.30;;;21.70;99.90;;;;;;5032636;28;20052;-86
2022/06/25 06:26:18;;;;;;;2.67;0.80;;;21.80;99.90;;;;;;5032721;28;20025;-87
2022/06/25 06:28:44;;;;;;;3.30;0.85;;;21.90;99.90;;;;;;5032570;28;20018;-86
2022/06/25 06:31:09;;;;;;;3.85;0.73;;;21.90;99.90;;;;;;5032707;28;20040;-86
2022/06/25 06:33:35;;;;;;;2.72;0.90;;;21.90;99.90;;;;;;5032566;28;20059;-86
2022/06/25 06:36:02;;;;;;;3.17;0.70;;;22.10;99.90;;;;;;5032075;28;20049;-86
2022/06/25 06:38:27;;;;;;;2.83;0.90;;;22.20;99.90;;;;;;5033659;28;20026;-87
2022/06/25 06:40:53;;;;;;;2.17;0.70;;;22.30;99.90;;;;;;5032678;28;20025;-85
2022/06/25 06:43:18;;;;;;;2.90;0.70;;;22.40;99.90;;;;;;5032479;28;20033;-87
2022/06/25 06:45:44;;;;;;;2.15;0.68;;;22.30;99.90;;;;;;5032423;28;20140;-86
2022/06/25 06:48:09;;;;;;;3.08;0.80;;;22.30;99.90;;;;;;5032485;28;20029;-86
2022/06/25 06:50:35;;;;;;;4.05;0.80;;;22.30;99.90;;;;;;5033518;28;20103;-86
2022/06/25 06:53:01;;;;;;;2.72;0.70;;;22.30;99.90;;;;;;5032312;28;20033;-86
2022/06/25 06:55:26;;;;;;;2.00;0.73;;;22.30;99.90;;;;;;5018282;28;20087;-87
2022/06/25 06:57:52;;;;;;;2.88;0.60;;;22.20;99.90;;;;;;5036309;28;20018;-87
2022/06/25 07:00:17;;;;;;;3.50;0.93;;;22.00;99.90;;;;;;5036326;28;20027;-86
2022/06/25 07:02:43;;;;;;;3.83;0.60;;;21.90;99.90;;;;;;5036399;28;20021;-86
2022/06/25 07:05:08;;;;;;;2.20;0.68;;;21.80;99.90;;;;;;5035864;28;20022;-86
2022/06/25 07:07:34;;;;;;;1.55;0.50;;;21.80;99.90;;;;;;5036059;28;20040;-87
2022/06/25 07:10:00;;;;;;;1.70;0.50;;;21.80;99.90;;;;;;5036239;28;20017;-87
2022/06/25 07:12:26;;;;;;;2.17;0.60;;;21.90;99.90;;;;;;5036022;28;20061;-87
2022/06/25 07:14:51;;;;;;;3.22;0.63;;;22.00;99.90;;;;;;5035963;28;20037;-86
2022/06/25 07:17:17;;;;;;;2.22;0.40;;;22.00;99.90;;;;;;5030189;28;20025;-87
2022/06/25 07:19:43;;;;;;;1.15;0.40;;;22.10;99.90;;;;;;5019522;28;20400;-87
2022/06/25 07:22:08;;;;;;;2.05;0.50;;;22.10;99.90;;;;;;5019362;28;20029;-87
2022/06/25 07:24:34;;;;;;;1.30;0.50;;;22.10;99.90;;;;;;5036916;28;20072;-87
2022/06/25 07:26:59;;;;;;;1.88;0.50;;;22.20;99.90;;;;;;5036731;28;20422;-87
2022/06/25 07:29:25;;;;;;;2.28;0.73;;;22.10;99.90;;;;;;5019253;28;20026;-87
2022/06/25 07:31:51;;;;;;;1.67;0.50;;;22.20;99.90;;;;;;5019234;28;20473;-86
2022/06/25 07:34:17;;;;;;;2.65;0.73;;;22.30;99.90;;;;;;5036407;28;20099;-87
2022/06/25 07:36:43;;;;;;;2.47;0.63;;;22.40;99.90;;;;;;5018596;28;20521;-86
2022/06/25 07:39:08;;;;;;;2.13;0.50;;;22.50;99.90;;;;;;5018873;28;20124;-86
2022/06/25 07:41:34;;;;;;;2.47;0.60;;;22.60;99.90;;;;;;5019033;28;20056;-87
2022/06/25 07:43:59;;;;;;;2.05;0.68;;;22.70;99.90;;;;;;5018823;28;20060;-86
2022/06/25 07:46:25;;;;;;;1.85;0.57;;;22.90;99.90;;;;;;5018753;28;20025;-86
2022/06/25 07:48:50;;;;;;;3.30;0.93;;;23.10;99.90;;;;;;5018930;28;20112;-86
2022/06/25 07:54:00;;;;;;;1.38;0.50;;;23.10;99.90;;;;;;5036608;28;20509;-86
2022/06/25 07:56:25;;;;;;;1.75;0.50;;;23.10;99.90;;;;;;5018637;28;20034;-86
2022/06/25 07:58:51;;;;;;;2.35;0.63;;;23.20;99.90;;;;;;5018655;28;20022;-86
2022/06/25 08:01:16;;;;;;;2.25;0.50;;;23.40;99.90;;;;;;5018580;28;20397;-87
2022/06/25 08:03:42;;;;;;;3.10;0.60;;;23.50;99.90;;;;;;5018415;28;20026;-87
2022/06/25 08:06:08;;;;;;;3.13;0.70;;;23.80;99.90;;;;;;5033665;28;20116;-86
2022/06/25 08:08:34;;;;;;;1.85;0.45;;;23.80;99.90;;;;;;5018698;28;20120;-87
2022/06/25 08:10:59;;;;;;;4.05;0.65;;;23.90;99.90;;;;;;5018250;28;20497;-86
2022/06/25 08:13:26;;;;;;;1.92;0.50;;;23.90;99.90;;;;;;5035813;28;20048;-87
2022/06/25 08:15:52;;;;;;;1.02;0.50;;;24.00;99.90;;;;;;5018345;28;20033;-86
2022/06/25 08:18:20;;;;;;;1.55;0.40;;;24.10;99.90;;;;;;5018033;28;20021;-87
2022/06/25 08:20:46;;;;;;;2.88;0.50;;;24.20;99.90;;;;;;5035872;28;20021;-87
2022/06/25 08:23:11;;;;;;;3.17;0.60;;;24.20;99.20;;;;;;5034520;28;20029;-87
2022/06/25 08:25:37;;;;;;;2.28;0.50;;;24.00;99.30;;;;;;5018216;28;20112;-86
2022/06/25 08:28:03;;;;;;;2.50;0.75;;;24.00;99.20;;;;;;5018136;28;20087;-87
2022/06/25 08:30:29;;;;;;;2.92;0.47;;;23.90;99.40;;;;;;5017693;28;20446;-86
2022/06/25 08:32:55;;;;;;;4.18;0.52;;;24.00;99.50;;;;;;5017733;28;20036;-86
2022/06/25 08:35:21;;;;;;;2.10;0.50;;;24.10;99.30;;;;;;5017601;28;20440;-87
2022/06/25 08:37:48;;;;;;;1.33;0.60;;;24.20;98.80;;;;;;5018357;28;20048;-87
2022/06/25 08:40:15;;;;;;;2.45;0.65;;;24.10;98.60;;;;;;5017694;28;20026;-87
2022/06/25 08:42:41;;;;;;;2.60;0.65;;;24.00;98.80;;;;;;5035242;28;20021;-86
2022/06/25 08:45:07;;;;;;;1.60;0.70;;;23.70;98.90;;;;;;5034350;28;20128;-87
2022/06/25 08:47:33;;;;;;;1.75;0.40;;;23.60;99.10;;;;;;5035170;28;20047;-86
2022/06/25 08:49:59;;;;;;;2.55;0.50;;;23.40;99.10;;;;;;5017447;28;20061;-87
2022/06/25 08:52:27;;;;;;;1.42;0.55;;;23.20;99.50;;;;;;5035107;28;20025;-87
2022/06/25 08:54:54;;;;;;;2.10;0.50;;;23.10;99.90;;;;;;5017379;28;20052;-87
2022/06/25 08:57:20;;;;;;;3.10;0.50;;;23.10;99.90;;;;;;5035033;28;20474;-86
2022/06/25 08:59:46;;;;;;;2.38;0.50;;;23.00;99.90;;;;;;5034951;28;20026;-87
2022/06/25 09:02:12;;;;;;;1.20;0.45;;;23.00;99.90;;;;;;5034837;28;20048;-87
2022/06/25 09:04:38;;;;;;;0.93;0.30;;;23.00;99.90;;;;;;5034052;28;20030;-86
2022/06/25 09:07:15;;;;;;;1.58;0.40;;;23.00;99.90;;;;;;5034721;28;20022;-86
2022/06/25 09:09:50;;;;;;;0.82;0.40;;;22.80;99.90;;;;;;5017393;28;20034;-86
2022/06/25 09:12:17;;;;;;;3.88;1.23;;;22.70;99.90;;;;;;5017146;28;20029;-86
2022/06/25 09:14:43;;;;;;;2.45;0.50;;;22.60;99.90;;;;;;5016902;28;20029;-86
2022/06/25 09:17:14;;;;;;;2.28;0.50;;;22.50;99.90;;;;;;5016518;28;20027;-86
2022/06/25 09:19:43;;;;;;;4.60;0.57;;;22.40;99.90;;;;;;5033613;28;20062;-86
2022/06/25 09:22:11;;;;;;;1.15;0.40;;;22.30;99.90;;;;;;5017311;28;20104;-86
2022/06/25 09:24:55;;;;;;;2.22;0.80;;;22.20;99.90;;;;;;5034552;28;20021;-86
2022/06/25 09:27:33;;;;;;;1.45;0.50;;;22.10;99.90;;;;;;5034324;28;20029;-86
2022/06/25 09:30:13;;;;;;;2.70;0.55;;;22.10;99.90;;;;;;5016652;28;20500;-86
2022/06/25 09:32:45;;;;;;;3.65;0.60;;;22.30;99.90;;;;;;5034806;28;20036;-86
2022/06/25 09:35:12;;;;;;;2.72;0.63;;;22.40;99.90;;;;;;5034173;28;20033;-86
2022/06/25 09:37:39;;;;;;;1.73;0.60;;;22.60;99.90;;;;;;5016702;28;20128;-86
2022/06/25 09:40:05;;;;;;;1.70;0.57;;;22.70;99.90;;;;;;5017008;28;20061;-87
2022/06/25 09:42:34;;;;;;;2.92;0.60;;;22.80;99.90;;;;;;5034895;28;20453;-86
2022/06/25 09:45:05;;;;;;;2.22;0.63;;;22.90;99.90;;;;;;5034706;28;20105;-87
2022/06/25 09:47:38;;;;;;;1.67;0.57;;;22.90;99.90;;;;;;5034845;28;20474;-86
2022/06/25 09:50:05;;;;;;;4.25;0.60;;;23.00;99.90;;;;;;5017699;28;20037;-87
2022/06/25 09:52:31;;;;;;;1.75;0.60;;;23.10;99.90;;;;;;5016223;28;20025;-87
2022/06/25 09:54:57;;;;;;;2.67;0.68;;;23.30;99.90;;;;;;5016473;28;20025;-87
2022/06/25 09:57:23;;;;;;;3.70;0.70;;;23.40;99.90;;;;;;5033721;28;20036;-87
2022/06/25 09:59:50;;;;;;;2.83;0.70;;;23.50;99.90;;;;;;5016495;28;20384;-86
2022/06/25 10:02:18;;;;;;;3.47;0.57;;;23.60;99.90;;;;;;5016757;28;20068;-86
2022/06/25 10:04:45;;;;;;;3.25;0.70;;;23.60;99.90;;;;;;5016505;28;20455;-86
2022/06/25 10:07:15;;;;;;;2.40;0.60;;;23.50;99.90;;;;;;5033664;28;20064;-87
2022/06/25 10:09:41;;;;;;;1.65;0.73;;;23.40;99.90;;;;;;5016089;28;20053;-86
2022/06/25 10:12:08;;;;;;;2.55;0.90;;;23.10;99.90;;;;;;5033795;28;20033;-87
2022/06/25 10:14:35;;;;;;;2.17;0.93;;;22.90;99.90;;;;;;5016287;28;20362;-87
2022/06/25 10:17:03;;;;;;;2.97;0.90;;;22.80;99.90;;;;;;5033932;28;20083;-85
2022/06/25 10:19:31;;;;;;;2.55;1.02;;;22.70;99.90;;;;;;5016334;28;20048;-87
2022/06/25 10:22:01;;;;;;;4.03;1.00;;;22.50;99.90;;;;;;5016371;28;20037;-86
2022/06/25 10:24:27;;;;;;;6.25;1.15;;;22.50;99.90;;;;;;5016032;28;20432;-86
2022/06/25 10:26:52;;;;;;;3.50;0.90;;;22.40;99.90;;;;;;5033595;28;20026;-86
2022/06/25 10:29:29;;;;;;;3.45;1.00;;;22.40;99.90;;;;;;5034488;28;20032;-85
2022/06/25 10:32:17;;;;;;;1.95;0.95;;;22.60;99.90;;;;;;5020172;28;20112;-86
2022/06/25 10:34:57;;;;;;;1.98;0.98;;;22.70;99.90;;;;;;5037324;28;20041;-86
2022/06/25 10:37:23;;;;;;;4.05;0.90;;;22.80;99.90;;;;;;5019888;28;20045;-86
2022/06/25 10:39:56;;;;;;;1.88;0.80;;;22.80;99.90;;;;;;5037774;28;20029;-86
2022/06/25 10:45:33;;;;;;;2.20;0.93;;;22.90;99.90;;;;;;5037890;28;20048;-87
2022/06/25 10:48:00;;;;;;;4.68;1.02;;;23.00;99.90;;;;;;5037268;28;20428;-87
2022/06/25 10:50:32;;;;;;;2.97;1.00;;;23.00;99.90;;;;;;5037491;28;20115;-86
2022/06/25 10:53:06;;;;;;;4.05;1.08;;;23.00;99.90;;;;;;5019638;28;20017;-86
2022/06/25 10:56:00;;;;;;;2.97;1.02;;;23.00;99.90;;;;;;5036201;28;20037;-86
2022/06/25 10:58:28;;;;;;;4.18;1.10;;;23.10;99.90;;;;;;5019891;28;20025;-86
2022/06/25 11:00:56;;;;;;;3.67;0.95;;;23.10;99.90;;;;;;5019655;28;20453;-86
2022/06/25 11:03:27;;;;;;;2.30;0.93;;;23.20;99.90;;;;;;5019820;28;20038;-86
2022/06/25 11:05:54;;;;;;;2.00;0.85;;;23.30;99.90;;;;;;5035797;28;20138;-86
2022/06/25 11:08:22;;;;;;;2.80;0.70;;;23.30;99.90;;;;;;5019474;28;20025;-86
2022/06/25 11:10:48;;;;;;;3.00;0.70;;;23.40;99.90;;;;;;5020150;28;20021;-86
2022/06/25 11:13:14;;;;;;;2.95;0.88;;;23.40;99.90;;;;;;5039255;28;20082;-86
2022/06/25 11:15:42;;;;;;;3.33;0.80;;;23.40;99.90;;;;;;5039169;28;20041;-86
2022/06/25 11:18:09;;;;;;;4.25;1.40;;;23.70;99.90;;;;;;5039240;28;20388;-85
2022/06/25 11:20:36;;;;;;;4.85;0.80;;;24.10;99.90;;;;;;5038926;28;20032;-85
2022/06/25 11:23:02;;;;;;;2.45;0.82;;;24.40;99.90;;;;;;5039065;28;20493;-86
2022/06/25 11:31:16;;;;;;;3.33;0.63;;;25.10;99.20;;;;;;5056806;28;20044;-86
2022/06/25 11:33:43;;;;;;;2.45;0.57;;;25.20;98.90;;;;;;5056795;28;20036;-86
2022/06/25 11:36:12;;;;;;;2.08;0.50;;;25.40;98.40;;;;;;5038728;28;20056;-86
2022/06/25 11:38:40;;;;;;;3.33;0.77;;;25.40;97.90;;;;;;5038723;28;20473;-87
2022/06/25 11:41:06;;;;;;;2.47;0.60;;;25.30;97.40;;;;;;5038303;28;20115;-86
2022/06/25 11:43:34;;;;;;;1.02;0.47;;;25.30;97.50;;;;;;5038800;28;20550;-85
2022/06/25 11:46:01;;;;;;;3.53;0.65;;;25.30;97.60;;;;;;5039161;28;20495;-86
2022/06/25 11:48:31;;;;;;;0.95;0.50;;;25.40;97.40;;;;;;5038572;28;20145;-86
2022/06/25 11:51:01;;;;;;;5.07;0.60;;;25.50;96.80;;;;;;5038955;28;20119;-86
2022/06/25 11:53:28;;;;;;;2.30;0.50;;;25.70;96.50;;;;;;5038658;28;20029;-86
2022/06/25 11:56:01;;;;;;;3.85;0.60;;;25.90;96.20;;;;;;5038020;28;20035;-86
2022/06/25 11:58:30;;;;;;;2.55;0.52;;;26.20;95.90;;;;;;5038331;28;20032;-86
2022/06/25 12:01:00;;;;;;;1.98;0.70;;;26.30;95.20;;;;;;5038329;28;20095;-86
2022/06/25 12:03:26;;;;;;;3.90;0.80;;;26.40;95.00;;;;;;5038719;28;20017;-87
2022/06/25 12:05:53;;;;;;;2.33;0.55;;;26.40;94.80;;;;;;5038212;28;20393;-86
2022/06/25 12:08:20;;;;;;;2.00;0.50;;;26.30;94.30;;;;;;5038283;28;20536;-86
2022/06/25 12:10:47;;;;;;;3.40;0.50;;;26.30;94.50;;;;;;5026532;28;20045;-87
2022/06/25 12:13:17;;;;;;;2.40;0.80;;;26.20;94.20;;;;;;5018496;28;20087;-86
2022/06/25 12:15:42;;;;;;;1.33;0.40;;;26.30;94.60;;;;;;5018196;28;20041;-86
2022/06/25 12:18:08;;;;;;;2.65;0.40;;;26.40;94.20;;;;;;5018303;28;20433;-86
2022/06/25 12:20:34;;;;;;;2.65;0.52;;;26.50;94.30;;;;;;5018208;28;20385;-87
2022/06/25 12:23:00;;;;;;;2.08;0.60;;;26.80;93.70;;;;;;5018093;28;20028;-86
2022/06/25 12:25:29;;;;;;;2.92;0.40;;;26.80;93.20;;;;;;5035627;28;20021;-85
2022/06/25 12:27:55;;;;;;;1.45;0.50;;;26.50;92.80;;;;;;5018237;28;20121;-87
2022/06/25 12:30:32;;;;;;;2.05;0.40;;;26.30;92.80;;;;;;5018161;28;20477;-86
2022/06/25 12:33:05;;;;;;;0.73;0.25;;;26.30;92.70;;;;;;5035385;28;20026;-86
2022/06/25 12:35:31;;;;;;;2.30;0.60;;;26.20;92.50;;;;;;5017192;28;20053;-86
2022/06/25 12:38:03;;;;;;;1.20;0.20;;;26.40;92.50;;;;;;5035467;28;20474;-85
2022/06/25 12:40:30;;;;;;;0.60;0.25;;;26.60;92.60;;;;;;5018482;28;20017;-86
2022/06/25 12:42:57;;;;;;;1.48;0.20;;;26.90;92.40;;;;;;5018784;28;20056;-87
2022/06/25 12:45:23;;;;;;;2.08;0.30;;;27.10;91.70;;;;;;5019080;28;20024;-87
2022/06/25 12:47:49;;;;;;;1.20;0.40;;;27.20;91.20;;;;;;5018179;28;20025;-86
2022/06/25 12:50:31;;;;;;;0.88;0.20;;;27.10;90.80;;;;;;5018135;28;20025;-87
2022/06/25 12:53:07;;;;;;;1.30;0.20;;;27.10;90.80;;;;;;5017098;28;20501;-86
2022/06/25 12:55:33;;;;;;;0.80;0.20;;;27.00;90.50;;;;;;5017685;28;20029;-86
2022/06/25 12:58:08;;;;;;;0.50;0.20;;;27.20;90.30;;;;;;5017513;28;20021;-86
2022/06/25 13:00:37;;;;;;;0.85;0.10;;;27.40;88.80;;;;;;5017629;28;20079;-86
2022/06/25 13:03:06;;;;;;;1.58;0.10;;;27.40;88.10;;;;;;5017489;28;20022;-86
2022/06/25 13:05:33;;;;;;;1.30;0.20;;;27.30;87.70;;;;;;5035111;28;20025;-87